Time;durP1;ratioP1;P1;durP2;ratioP2;P2;SDS_P1;SDS_P2;PMS_P1;PMS_P2;Temp;Humidity;BMP_temperature;BMP_pressure;BME280_temperature;BME280_humidity;BME280_pressure;Samples;Min_cycle;Max_cycle;Signal;HPM_P1;HPM_P2
2022/12/05 00:02:32;;;;;;;;;;;;;;;20.24;36.38;95290.09;10435673;28;3371;-53
2022/12/05 00:07:33;;;;;;;;;;;;;;;20.21;36.30;95274.88;10441972;28;3427;-52
2022/12/05 00:12:33;;;;;;;;;;;;;;;20.18;36.44;95291.19;10430087;28;2939;-53
2022/12/05 00:17:33;;;;;;;;;;;;;;;20.15;36.43;95294.38;10430725;28;2954;-52
2022/12/05 00:22:34;;;;;;;;;;;;;;;20.12;36.66;95300.19;10428285;28;3305;-53
2022/12/05 00:27:34;;;;;;;;;;;;;;;20.09;36.38;95292.88;10428195;28;3508;-55
2022/12/05 00:32:35;;;;;;;;;;;;;;;20.06;36.42;95317.13;10428055;28;3336;-53
2022/12/05 00:37:35;;;;;;;;;;;;;;;20.04;36.33;95313.97;10436150;28;3297;-52
2022/12/05 00:42:35;;;;;;;;;;;;;;;20.01;36.30;95314.56;10444804;28;3020;-52
2022/12/05 00:47:36;;;;;;;;;;;;;;;19.97;36.44;95318.81;10431995;28;3464;-52
2022/12/05 00:52:36;;;;;;;;;;;;;;;19.95;36.32;95318.28;10443955;28;3286;-53
2022/12/05 00:57:36;;;;;;;;;;;;;;;19.93;36.37;95325.66;10439136;28;2817;-55
2022/12/05 01:02:36;;;;;;;;;;;;;;;19.89;36.36;95328.06;10445825;28;3355;-56
2022/12/05 01:07:37;;;;;;;;;;;;;;;19.88;36.23;95321.25;10436999;28;3415;-55
2022/12/05 01:12:37;;;;;;;;;;;;;;;19.85;35.96;95329.69;10435129;28;3265;-54
2022/12/05 01:17:37;;;;;;;;;;;;;;;19.84;36.16;95343.13;10430269;28;3388;-54
2022/12/05 01:22:38;;;;;;;;;;;;;;;19.78;36.35;95370.53;10437935;28;3250;-54
2022/12/05 01:27:38;;;;;;;;;;;;;;;19.77;36.00;95371.59;10433064;28;3692;-52
2022/12/05 01:32:38;;;;;;;;;;;;;;;19.76;36.20;95388.44;10434961;28;2860;-53
2022/12/05 01:37:39;;;;;;;;;;;;;;;19.74;36.05;95366.91;10429419;28;3415;-55
2022/12/05 01:42:39;;;;;;;;;;;;;;;19.71;36.11;95367.44;10436216;28;2880;-55
2022/12/05 01:47:39;;;;;;;;;;;;;;;19.68;35.83;95373.28;10438221;28;2859;-56
2022/12/05 01:52:39;;;;;;;;;;;;;;;19.66;35.97;95380.66;10442783;28;2880;-54
2022/12/05 01:57:44;;;;;;;;;;;;;;;19.63;35.90;95396.97;10431441;28;3322;-54
2022/12/05 02:03:05;;;;;;;;;;;;;;;19.62;35.83;95404.06;10430918;28;3420;-53
2022/12/05 02:08:07;;;;;;;;;;;;;;;19.58;36.07;95410.94;10435807;28;3257;-55
2022/12/05 02:13:15;;;;;;;;;;;;;;;19.56;35.61;95425.44;10429861;28;3261;-55
2022/12/05 02:18:44;;;;;;;;;;;;;;;19.53;36.06;95455.69;10446300;28;3457;-54
2022/12/05 02:23:45;;;;;;;;;;;;;;;19.51;35.84;95451.75;10420329;28;2852;-54
2022/12/05 02:28:51;;;;;;;;;;;;;;;19.49;35.81;95458.03;10438767;28;3375;-54
2022/12/05 02:34:03;;;;;;;;;;;;;;;19.45;35.93;95446.50;10434079;28;2917;-54
2022/12/05 02:39:06;;;;;;;;;;;;;;;19.44;35.62;95459.94;10431102;28;3273;-54
2022/12/05 02:44:26;;;;;;;;;;;;;;;19.42;35.71;95456.78;10413302;28;3363;-56
2022/12/05 02:49:29;;;;;;;;;;;;;;;19.39;35.71;95460.75;10446146;28;2996;-55
2022/12/05 02:54:30;;;;;;;;;;;;;;;19.36;35.72;95471.03;10443521;28;2981;-51
2022/12/05 02:59:30;;;;;;;;;;;;;;;19.35;35.56;95475.50;10432160;28;3332;-54
2022/12/05 03:04:31;;;;;;;;;;;;;;;19.34;35.53;95481.03;10438628;28;3275;-55
2022/12/05 03:09:31;;;;;;;;;;;;;;;19.32;35.67;95485.75;10458445;28;3454;-56
2022/12/05 03:14:33;;;;;;;;;;;;;;;19.30;35.55;95482.59;10438051;28;2864;-54
2022/12/05 03:19:36;;;;;;;;;;;;;;;19.25;35.42;95501.78;10438602;28;3389;-54
2022/12/05 03:24:36;;;;;;;;;;;;;;;19.26;35.35;95513.91;10447254;28;3257;-57
2022/12/05 03:30:16;;;;;;;;;;;;;;;19.22;35.35;95510.25;10442337;28;2931;-54
2022/12/05 03:35:31;;;;;;;;;;;;;;;19.20;35.35;95514.19;10308201;28;3346;-53
2022/12/05 03:40:50;;;;;;;;;;;;;;;19.19;35.38;95523.09;10404072;28;3694;-54
2022/12/05 03:45:53;;;;;;;;;;;;;;;19.16;35.20;95529.72;10440248;28;3320;-56
2022/12/05 03:50:54;;;;;;;;;;;;;;;19.14;35.02;95536.28;10445268;28;3318;-54
2022/12/05 03:55:56;;;;;;;;;;;;;;;19.10;35.28;95545.75;10455469;28;3320;-55
2022/12/05 04:00:57;;;;;;;;;;;;;;;19.09;35.30;95550.22;10443588;28;3246;-55
2022/12/05 04:05:58;;;;;;;;;;;;;;;19.07;35.16;95536.56;10433519;28;3312;-55
2022/12/05 04:11:03;;;;;;;;;;;;;;;19.06;35.10;95545.50;10429723;28;2872;-55
2022/12/05 04:21:38;;;;;;;;;;;;;;;19.02;35.03;95559.44;10442261;28;3439;-56
2022/12/05 04:26:42;;;;;;;;;;;;;;;19.00;35.01;95562.31;10451574;28;3411;-55
2022/12/05 04:31:48;;;;;;;;;;;;;;;18.99;34.78;95560.75;10437738;28;3331;-56
2022/12/05 04:36:56;;;;;;;;;;;;;;;18.96;34.74;95560.53;10433938;28;3750;-56
2022/12/05 04:41:57;;;;;;;;;;;;;;;18.97;34.81;95562.09;10461116;28;2918;-52
2022/12/05 04:46:58;;;;;;;;;;;;;;;18.96;34.75;95566.53;10428240;28;2805;-54
2022/12/05 04:51:59;;;;;;;;;;;;;;;18.89;34.81;95555.53;10439791;28;2935;-53
2022/12/05 04:57:04;;;;;;;;;;;;;;;18.87;34.64;95552.41;10440674;28;3428;-56
2022/12/05 05:02:08;;;;;;;;;;;;;;;18.90;34.37;95543.97;10440956;28;3316;-54
2022/12/05 05:07:08;;;;;;;;;;;;;;;19.02;34.30;95538.44;10433019;28;3238;-54
2022/12/05 05:12:09;;;;;;;;;;;;;;;19.17;33.97;95531.28;10435103;28;3328;-55
2022/12/05 05:17:09;;;;;;;;;;;;;;;19.26;33.89;95537.53;10437107;28;2841;-54
2022/12/05 05:22:09;;;;;;;;;;;;;;;19.39;33.58;95542.22;10437610;28;3297;-55
2022/12/05 05:27:10;;;;;;;;;;;;;;;19.44;33.70;95555.34;10436790;28;3331;-55
2022/12/05 05:32:10;;;;;;;;;;;;;;;19.45;33.54;95556.91;10442384;28;3262;-56
2022/12/05 05:37:13;;;;;;;;;;;;;;;19.52;33.39;95558.47;10433035;28;3398;-55
2022/12/05 05:42:13;;;;;;;;;;;;;;;19.54;32.64;95572.16;10424644;28;3337;-53
2022/12/05 05:47:13;;;;;;;;;;;;;;;19.59;32.45;95569.47;10441653;28;3389;-54
2022/12/05 05:52:13;;;;;;;;;;;;;;;19.61;32.94;95568.16;10440583;28;3289;-55
2022/12/05 05:57:14;;;;;;;;;;;;;;;19.64;32.57;95567.59;10447563;28;3403;-54
2022/12/05 06:02:14;;;;;;;;;;;;;;;19.68;32.35;95573.13;10435931;28;3321;-56
2022/12/05 06:07:14;;;;;;;;;;;;;;;19.71;32.45;95581.25;10431824;28;3326;-55
2022/12/05 06:12:15;;;;;;;;;;;;;;;19.75;32.36;95598.06;10437250;28;3272;-56
2022/12/05 06:17:15;;;;;;;;;;;;;;;19.78;32.47;95597.53;10435631;28;3270;-54
2022/12/05 06:22:15;;;;;;;;;;;;;;;19.79;32.09;95606.97;10437725;28;3262;-54
2022/12/05 06:27:15;;;;;;;;;;;;;;;19.82;32.13;95610.91;10438511;28;3301;-55
2022/12/05 06:32:16;;;;;;;;;;;;;;;19.86;32.39;95617.19;10442160;28;3321;-54
2022/12/05 06:37:16;;;;;;;;;;;;;;;19.85;32.15;95612.97;10442151;28;2840;-55
2022/12/05 06:42:21;;;;;;;;;;;;;;;19.87;32.06;95608.22;10436143;28;3343;-54
2022/12/05 06:47:22;;;;;;;;;;;;;;;19.88;32.63;95615.88;10436667;28;3343;-55
2022/12/05 06:52:22;;;;;;;;;;;;;;;19.91;31.69;95630.31;10434971;28;2836;-56
2022/12/05 06:57:23;;;;;;;;;;;;;;;19.89;31.68;95638.47;10435097;28;3256;-53
2022/12/05 07:02:23;;;;;;;;;;;;;;;19.94;31.47;95650.81;10434859;28;3500;-55
2022/12/05 07:07:27;;;;;;;;;;;;;;;19.93;31.33;95643.97;10439054;28;3268;-56
2022/12/05 07:12:28;;;;;;;;;;;;;;;19.97;31.36;95643.16;10443096;28;3301;-55
2022/12/05 07:17:28;;;;;;;;;;;;;;;19.98;31.45;95651.84;10440159;28;3369;-55
2022/12/05 07:22:28;;;;;;;;;;;;;;;20.03;31.46;95649.19;10443746;28;2999;-54
2022/12/05 07:27:29;;;;;;;;;;;;;;;20.03;31.10;95649.19;10437159;28;3304;-54
2022/12/05 07:32:32;;;;;;;;;;;;;;;20.07;31.81;95660.75;10447959;28;3364;-55
2022/12/05 07:37:34;;;;;;;;;;;;;;;20.07;31.32;95661.53;10441931;28;3349;-54
2022/12/05 07:42:35;;;;;;;;;;;;;;;20.09;30.85;95663.91;10443200;28;3284;-54
2022/12/05 07:47:35;;;;;;;;;;;;;;;20.13;30.86;95670.97;10446510;28;2836;-53
2022/12/05 07:52:36;;;;;;;;;;;;;;;20.14;31.87;95680.44;10442634;28;2879;-53
2022/12/05 07:57:36;;;;;;;;;;;;;;;20.15;32.26;95689.13;10445983;28;2872;-56
2022/12/05 08:02:37;;;;;;;;;;;;;;;20.12;31.67;95687.81;10454746;28;3336;-55
2022/12/05 08:07:39;;;;;;;;;;;;;;;20.13;32.08;95691.25;10452632;28;3292;-56
2022/12/05 08:12:40;;;;;;;;;;;;;;;20.10;32.39;95676.78;10452793;28;3345;-53
2022/12/05 08:17:40;;;;;;;;;;;;;;;20.09;32.07;95684.94;10443040;28;3610;-51
2022/12/05 08:22:40;;;;;;;;;;;;;;;20.07;32.26;95692.34;10445242;28;2994;-55
2022/12/05 08:27:40;;;;;;;;;;;;;;;20.03;32.69;95702.59;10436122;28;2630;-54
2022/12/05 08:32:41;;;;;;;;;;;;;;;20.03;32.33;95704.47;10441936;28;3072;-55
2022/12/05 08:37:41;;;;;;;;;;;;;;;19.98;32.87;95721.06;10444935;28;2978;-52
2022/12/05 08:42:41;;;;;;;;;;;;;;;19.96;32.86;95725.00;10439929;28;3116;-56
2022/12/05 08:47:42;;;;;;;;;;;;;;;19.89;32.76;95727.91;10446023;28;3010;-55
2022/12/05 08:52:42;;;;;;;;;;;;;;;19.85;32.87;95723.47;10439831;28;3500;-55
2022/12/05 08:57:42;;;;;;;;;;;;;;;19.82;32.96;95735.31;10442016;28;3034;-55
2022/12/05 09:02:45;;;;;;;;;;;;;;;19.78;32.94;95730.88;10428766;28;2978;-53
2022/12/05 09:07:45;;;;;;;;;;;;;;;19.73;33.11;95728.25;10438369;28;3041;-54
2022/12/05 09:12:51;;;;;;;;;;;;;;;19.74;32.96;95735.09;10441121;28;3030;-55
2022/12/05 09:17:52;;;;;;;;;;;;;;;19.65;32.88;95741.94;10439557;28;3438;-55
2022/12/05 09:22:52;;;;;;;;;;;;;;;19.63;33.03;95749.31;10431284;28;3009;-54
2022/12/05 09:27:53;;;;;;;;;;;;;;;19.60;32.85;95747.22;10454699;28;3086;-55
2022/12/05 09:32:54;;;;;;;;;;;;;;;19.56;33.00;95754.06;10431772;28;3175;-54
2022/12/05 09:37:55;;;;;;;;;;;;;;;19.52;32.99;95758.25;10452001;28;3046;-54
2022/12/05 09:43:02;;;;;;;;;;;;;;;19.48;32.81;95753.56;10431598;28;2646;-56
2022/12/05 09:48:12;;;;;;;;;;;;;;;19.45;32.93;95767.22;10433810;28;2998;-53
2022/12/05 09:53:12;;;;;;;;;;;;;;;19.44;32.87;95763.03;10420280;28;3045;-55
2022/12/05 09:58:17;;;;;;;;;;;;;;;19.39;32.83;95762.25;10441493;28;3041;-54
2022/12/05 10:03:20;;;;;;;;;;;;;;;19.40;32.84;95769.88;10438435;28;2975;-53
2022/12/05 10:08:32;;;;;;;;;;;;;;;19.35;33.00;95769.88;10436567;28;3068;-53
2022/12/05 10:13:35;;;;;;;;;;;;;;;19.32;32.94;95762.50;10434810;28;3046;-54
2022/12/05 10:19:02;;;;;;;;;;;;;;;19.25;33.10;95759.34;10437725;28;3338;-53
2022/12/05 10:24:26;;;;;;;;;;;;;;;19.23;33.05;95764.06;10430214;28;2990;-52
2022/12/05 10:29:30;;;;;;;;;;;;;;;19.18;33.22;95752.78;10420166;28;3042;-54
2022/12/05 10:34:37;;;;;;;;;;;;;;;19.19;32.98;95747.25;10434317;28;3077;-53
2022/12/05 10:39:37;;;;;;;;;;;;;;;19.17;33.15;95756.44;10425173;28;3165;-53
2022/12/05 10:44:38;;;;;;;;;;;;;;;19.08;33.26;95752.78;10433970;28;3014;-53
2022/12/05 10:49:38;;;;;;;;;;;;;;;19.07;33.13;95754.63;10440044;28;2585;-52
2022/12/05 10:54:41;;;;;;;;;;;;;;;19.06;33.11;95750.41;10432672;28;2990;-52
2022/12/05 10:59:47;;;;;;;;;;;;;;;19.02;33.25;95741.47;10441246;28;3029;-54
2022/12/05 11:04:47;;;;;;;;;;;;;;;19.01;33.16;95741.75;10425987;28;2971;-53
2022/12/05 11:09:47;;;;;;;;;;;;;;;18.97;33.18;95738.88;10443447;28;2982;-55
2022/12/05 11:14:53;;;;;;;;;;;;;;;18.93;33.32;95737.81;10434382;28;3108;-54
2022/12/05 11:19:53;;;;;;;;;;;;;;;18.93;33.32;95735.19;10442870;28;3129;-53
2022/12/05 11:24:54;;;;;;;;;;;;;;;18.88;33.33;95737.00;10435857;28;2970;-53
2022/12/05 11:30:14;;;;;;;;;;;;;;;18.86;33.23;95726.78;10458360;28;2565;-55
2022/12/05 11:35:14;;;;;;;;;;;;;;;18.89;33.37;95739.41;10432431;28;3151;-55
2022/12/05 11:40:20;;;;;;;;;;;;;;;18.83;33.34;95727.31;10431681;28;2932;-51
2022/12/05 11:45:32;;;;;;;;;;;;;;;18.84;33.24;95728.88;10458856;28;3150;-53
2022/12/05 11:50:44;;;;;;;;;;;;;;;18.82;33.25;95728.34;10426635;28;3073;-53
2022/12/05 11:55:48;;;;;;;;;;;;;;;18.92;33.13;95730.22;10458244;28;3070;-56
2022/12/05 12:00:57;;;;;;;;;;;;;;;19.00;33.08;95729.69;10450509;28;3021;-54
2022/12/05 12:05:57;;;;;;;;;;;;;;;19.11;32.92;95728.59;10448447;28;2983;-54
2022/12/05 12:11:09;;;;;;;;;;;;;;;19.18;32.73;95724.66;10436248;28;3030;-53
2022/12/05 12:16:15;;;;;;;;;;;;;;;19.25;32.62;95735.69;10435545;28;3025;-55
2022/12/05 12:21:24;;;;;;;;;;;;;;;19.26;32.67;95729.38;10439901;28;3145;-53
2022/12/05 12:26:52;;;;;;;;;;;;;;;19.35;32.70;95721.78;10436330;28;3084;-54
2022/12/05 12:32:12;;;;;;;;;;;;;;;19.41;32.68;95728.59;10414973;28;3108;-53
2022/12/05 12:37:18;;;;;;;;;;;;;;;19.43;32.43;95724.63;10447897;28;3098;-53
2022/12/05 12:42:26;;;;;;;;;;;;;;;19.46;32.62;95715.44;10444266;28;3014;-55
2022/12/05 12:47:27;;;;;;;;;;;;;;;19.52;32.67;95716.19;10427397;28;3019;-55
2022/12/05 12:52:29;;;;;;;;;;;;;;;19.53;32.47;95707.28;10444308;28;3078;-55
2022/12/05 12:57:46;;;;;;;;;;;;;;;19.56;32.24;95714.63;10427193;28;3034;-55
2022/12/05 13:02:50;;;;;;;;;;;;;;;19.60;32.38;95710.41;10447012;28;3249;-53
2022/12/05 13:07:51;;;;;;;;;;;;;;;19.59;32.23;95707.00;10446784;28;3075;-53
2022/12/05 13:12:52;;;;;;;;;;;;;;;19.62;32.44;95711.69;10455050;28;3006;-55
2022/12/05 13:17:52;;;;;;;;;;;;;;;19.63;32.40;95715.91;10439306;28;3069;-53
2022/12/05 13:22:53;;;;;;;;;;;;;;;19.66;32.07;95701.47;10440549;28;2971;-53
2022/12/05 13:27:54;;;;;;;;;;;;;;;19.68;32.07;95705.38;10442171;28;3098;-54
2022/12/05 13:32:55;;;;;;;;;;;;;;;19.70;32.24;95700.63;10439218;28;3505;-54
2022/12/05 13:43:18;;;;;;;;;;;;;;;19.73;32.34;95718.50;10430874;28;2991;-55
2022/12/05 13:48:20;;;;;;;;;;;;;;;19.77;32.17;95713.50;10444244;28;3030;-52
2022/12/05 13:53:39;;;;;;;;;;;;;;;19.76;32.50;95715.38;10438680;28;3045;-53
2022/12/05 13:58:42;;;;;;;;;;;;;;;19.78;32.02;95718.50;10438653;28;3038;-53
2022/12/05 14:03:54;;;;;;;;;;;;;;;19.78;32.14;95720.34;10436431;28;3018;-54
2022/12/05 14:08:54;;;;;;;;;;;;;;;19.83;32.11;95726.38;10427816;28;2958;-55
2022/12/05 14:13:55;;;;;;;;;;;;;;;19.82;31.71;95719.53;10423703;28;3046;-54
2022/12/05 14:18:58;;;;;;;;;;;;;;;19.85;32.05;95710.31;10431751;28;3045;-54
2022/12/05 14:24:04;;;;;;;;;;;;;;;19.87;32.04;95721.34;10424008;28;2518;-53
2022/12/05 14:29:24;;;;;;;;;;;;;;;19.84;32.05;95721.91;10444498;28;3106;-52
2022/12/05 14:34:24;;;;;;;;;;;;;;;19.89;31.87;95737.66;10435264;28;2982;-54
2022/12/05 14:39:40;;;;;;;;;;;;;;;19.88;32.00;95736.88;10433162;28;2600;-52
2022/12/05 14:44:44;;;;;;;;;;;;;;;19.90;31.91;95750.56;10437297;28;3070;-53
2022/12/05 14:49:51;;;;;;;;;;;;;;;19.88;31.87;95746.59;10434619;28;3033;-54
2022/12/05 14:54:52;;;;;;;;;;;;;;;19.90;31.50;95736.59;10438691;28;2633;-53
2022/12/05 14:59:54;;;;;;;;;;;;;;;19.92;31.74;95737.13;10441149;28;2617;-54
2022/12/05 15:04:55;;;;;;;;;;;;;;;19.93;32.08;95730.78;10437904;28;3058;-54
2022/12/05 15:09:56;;;;;;;;;;;;;;;19.95;31.77;95720.78;10438827;28;2974;-53
2022/12/05 15:15:00;;;;;;;;;;;;;;;19.94;31.96;95730.53;10437392;28;3011;-52
2022/12/05 15:20:03;;;;;;;;;;;;;;;19.95;32.16;95729.47;10442061;28;3139;-52
2022/12/05 15:25:14;;;;;;;;;;;;;;;19.95;31.52;95726.84;10437549;28;3030;-54
2022/12/05 15:30:15;;;;;;;;;;;;;;;19.96;32.12;95733.69;10431827;28;3026;-54
2022/12/05 15:35:16;;;;;;;;;;;;;;;19.99;31.99;95733.13;10439410;28;2975;-53
2022/12/05 15:40:17;;;;;;;;;;;;;;;19.99;32.09;95740.25;10442136;28;3078;-54
2022/12/05 15:45:22;;;;;;;;;;;;;;;19.97;31.57;95747.63;10438226;28;3026;-52
2022/12/05 15:50:28;;;;;;;;;;;;;;;20.01;31.91;95756.56;10426827;28;3150;-54
2022/12/05 15:55:31;;;;;;;;;;;;;;;20.03;31.90;95757.84;10425133;28;3161;-54
2022/12/05 16:00:31;;;;;;;;;;;;;;;20.00;31.49;95761.03;10448683;28;2570;-54
2022/12/05 16:05:33;;;;;;;;;;;;;;;20.00;32.06;95760.25;10434732;28;3386;-53
2022/12/05 16:10:33;;;;;;;;;;;;;;;19.99;32.02;95761.31;10427651;28;3097;-52
2022/12/05 16:15:33;;;;;;;;;;;;;;;20.01;31.99;95759.19;10440380;28;3142;-53
2022/12/05 16:20:34;;;;;;;;;;;;;;;20.02;31.94;95766.03;10433280;28;2963;-54
2022/12/05 16:25:35;;;;;;;;;;;;;;;20.04;32.27;95761.28;10439541;28;3045;-54
2022/12/05 16:30:35;;;;;;;;;;;;;;;20.02;32.08;95771.28;10459102;28;3021;-50
2022/12/05 16:35:37;;;;;;;;;;;;;;;20.02;32.10;95772.06;10461301;28;2934;-53
2022/12/05 16:40:47;;;;;;;;;;;;;;;20.05;31.91;95768.88;10438055;28;3124;-51
2022/12/05 16:45:48;;;;;;;;;;;;;;;20.05;31.96;95765.50;10432076;28;3138;-52
2022/12/05 16:50:49;;;;;;;;;;;;;;;20.04;31.71;95767.31;10435766;28;3026;-54
2022/12/05 16:55:49;;;;;;;;;;;;;;;20.04;31.71;95771.78;10447313;28;2939;-55
2022/12/05 17:00:50;;;;;;;;;;;;;;;20.08;32.12;95770.19;10431162;28;3029;-53
2022/12/05 17:05:50;;;;;;;;;;;;;;;20.08;31.81;95778.09;10439801;28;3086;-52
2022/12/05 17:10:50;;;;;;;;;;;;;;;20.09;31.54;95784.94;10440983;28;2600;-55
2022/12/05 17:15:50;;;;;;;;;;;;;;;20.08;32.13;95783.34;10451730;28;2943;-52
2022/12/05 17:20:52;;;;;;;;;;;;;;;20.12;32.08;95794.91;10421219;28;3049;-54
2022/12/05 17:25:55;;;;;;;;;;;;;;;20.13;32.48;95794.66;10432172;28;2522;-55
2022/12/05 17:30:56;;;;;;;;;;;;;;;20.17;32.42;95794.91;10438587;28;2966;-53
2022/12/05 17:35:59;;;;;;;;;;;;;;;20.18;32.75;95799.09;10422909;28;3070;-55
2022/12/05 17:40:59;;;;;;;;;;;;;;;20.20;32.74;95795.19;10439197;28;3209;-51
2022/12/05 17:45:59;;;;;;;;;;;;;;;20.24;33.10;95798.84;10429986;28;3021;-52
2022/12/05 17:51:01;;;;;;;;;;;;;;;20.23;33.11;95791.22;10456378;28;2983;-54
2022/12/05 17:56:01;;;;;;;;;;;;;;;20.19;33.39;95805.97;10436688;28;3115;-54
2022/12/05 18:01:02;;;;;;;;;;;;;;;20.18;33.47;95804.38;10432862;28;3067;-52
2022/12/05 18:06:02;;;;;;;;;;;;;;;20.15;33.52;95818.84;10435992;28;2982;-54
2022/12/05 18:11:03;;;;;;;;;;;;;;;20.11;33.52;95825.69;10433183;28;3011;-52
2022/12/05 18:16:03;;;;;;;;;;;;;;;20.08;33.62;95817.56;10431496;28;2602;-53
2022/12/05 18:21:07;;;;;;;;;;;;;;;20.07;33.66;95810.75;10425389;28;3013;-54
2022/12/05 18:26:08;;;;;;;;;;;;;;;20.05;33.57;95800.47;10434789;28;3034;-54
2022/12/05 18:31:09;;;;;;;;;;;;;;;20.04;33.74;95800.75;10426876;28;3089;-54
2022/12/05 18:36:10;;;;;;;;;;;;;;;20.02;33.93;95800.22;10443348;28;3125;-54
2022/12/05 18:41:10;;;;;;;;;;;;;;;20.00;33.83;95803.13;10432028;28;3063;-53
2022/12/05 18:46:11;;;;;;;;;;;;;;;20.00;34.07;95797.88;10428285;28;3003;-54
2022/12/05 18:51:12;;;;;;;;;;;;;;;19.96;33.73;95788.94;10431030;28;3117;-55
2022/12/05 18:56:12;;;;;;;;;;;;;;;19.92;33.73;95793.16;10441042;28;3060;-52
2022/12/05 19:01:15;;;;;;;;;;;;;;;19.92;33.91;95795.78;10437260;28;3058;-55
2022/12/05 19:06:17;;;;;;;;;;;;;;;19.93;33.81;95812.34;10425616;28;2999;-54
2022/12/05 19:11:18;;;;;;;;;;;;;;;19.81;33.97;95810.00;10413092;28;2978;-55
2022/12/05 19:16:19;;;;;;;;;;;;;;;19.77;33.94;95813.44;10408691;28;3029;-53
2022/12/05 19:21:26;;;;;;;;;;;;;;;19.73;34.06;95817.66;10424150;28;3025;-51
2022/12/05 19:26:27;;;;;;;;;;;;;;;19.73;34.27;95815.03;10414059;28;3011;-54
2022/12/05 19:31:28;;;;;;;;;;;;;;;19.80;33.96;95810.28;10434950;28;3038;-53
2022/12/05 19:36:30;;;;;;;;;;;;;;;19.76;34.35;95807.41;10437018;28;3065;-53
2022/12/05 19:41:31;;;;;;;;;;;;;;;19.75;34.25;95824.22;10437235;28;3025;-54
2022/12/05 19:46:32;;;;;;;;;;;;;;;19.75;34.35;95818.97;10454485;28;2589;-52
2022/12/05 19:51:34;;;;;;;;;;;;;;;19.77;34.74;95808.19;10440154;28;2999;-52
2022/12/05 19:56:35;;;;;;;;;;;;;;;19.76;35.19;95804.00;10442176;28;3183;-54
2022/12/05 20:01:36;;;;;;;;;;;;;;;19.77;35.25;95810.81;10434929;28;3026;-53
2022/12/05 20:06:37;;;;;;;;;;;;;;;19.77;35.04;95808.97;10432605;28;3025;-53
2022/12/05 20:11:41;;;;;;;;;;;;;;;19.77;35.32;95802.91;10437620;28;3081;-52
2022/12/05 20:16:43;;;;;;;;;;;;;;;19.77;35.14;95802.91;10441191;28;3018;-55
2022/12/05 20:21:44;;;;;;;;;;;;;;;19.78;35.21;95794.00;10433036;28;3018;-54
2022/12/05 20:26:45;;;;;;;;;;;;;;;19.77;35.29;95803.72;10436277;28;3049;-55
2022/12/05 20:31:45;;;;;;;;;;;;;;;19.78;35.09;95792.16;10435294;28;2998;-54
2022/12/05 20:36:45;;;;;;;;;;;;;;;19.80;35.06;95792.66;10440133;28;3030;-55
2022/12/05 20:41:47;;;;;;;;;;;;;;;19.80;34.84;95787.41;10443186;28;2983;-55
2022/12/05 20:46:48;;;;;;;;;;;;;;;19.79;35.31;95785.03;10448860;28;3026;-53
2022/12/05 20:51:48;;;;;;;;;;;;;;;19.78;35.33;95780.84;10443792;28;3006;-54
2022/12/05 20:56:48;;;;;;;;;;;;;;;19.79;35.17;95782.41;10447347;28;3122;-53
2022/12/05 21:01:49;;;;;;;;;;;;;;;19.77;34.67;95763.47;10447560;28;2978;-54
2022/12/05 21:06:49;;;;;;;;;;;;;;;19.82;35.02;95776.63;10440679;28;3107;-53
2022/12/05 21:11:49;;;;;;;;;;;;;;;19.85;35.06;95776.84;10435647;28;3030;-53
2022/12/05 21:16:51;;;;;;;;;;;;;;;19.86;34.41;95777.66;10434774;28;3018;-53
2022/12/05 21:21:55;;;;;;;;;;;;;;;19.91;36.56;95788.16;10437816;28;3045;-48
2022/12/05 21:26:55;;;;;;;;;;;;;;;19.89;35.19;95782.38;10433283;28;3067;-51
2022/12/05 21:31:55;;;;;;;;;;;;;;;19.91;34.19;95788.94;10443568;28;2624;-51
2022/12/05 21:36:58;;;;;;;;;;;;;;;19.94;35.01;95793.69;10438024;28;3030;-49
2022/12/05 21:41:58;;;;;;;;;;;;;;;19.93;33.48;95792.09;10439348;28;2987;-51
2022/12/05 21:46:59;;;;;;;;;;;;;;;19.96;34.21;95786.31;10434367;28;3098;-50
2022/12/05 21:51:59;;;;;;;;;;;;;;;19.99;33.64;95792.88;10441263;28;3044;-52
2022/12/05 21:56:59;;;;;;;;;;;;;;;20.03;33.70;95801.81;10444552;28;2942;-51
2022/12/05 22:01:59;;;;;;;;;;;;;;;20.03;33.64;95805.22;10436105;28;3014;-51
2022/12/05 22:07:00;;;;;;;;;;;;;;;20.08;34.87;95807.03;10435251;28;3088;-51
2022/12/05 22:12:00;;;;;;;;;;;;;;;20.10;34.23;95799.66;10442387;28;3122;-49
2022/12/05 22:17:00;;;;;;;;;;;;;;;20.08;34.56;95793.88;10430765;28;3134;-54
2022/12/05 22:22:01;;;;;;;;;;;;;;;20.07;33.83;95803.63;10436723;28;3005;-50
2022/12/05 22:27:01;;;;;;;;;;;;;;;20.10;35.22;95800.47;10435731;28;3052;-52
2022/12/05 22:32:01;;;;;;;;;;;;;;;20.09;34.73;95798.09;10439948;28;3006;-50
2022/12/05 22:37:01;;;;;;;;;;;;;;;20.08;34.06;95793.88;10443210;28;2569;-54
2022/12/05 22:42:02;;;;;;;;;;;;;;;20.07;34.09;95802.84;10433156;28;3022;-52
2022/12/05 22:47:02;;;;;;;;;;;;;;;20.08;34.49;95791.25;10435835;28;3023;-52
2022/12/05 22:52:03;;;;;;;;;;;;;;;20.05;34.74;95800.47;10439892;28;3078;-51
2022/12/05 22:57:07;;;;;;;;;;;;;;;20.06;34.48;95803.91;10431685;28;2973;-54
2022/12/05 23:02:08;;;;;;;;;;;;;;;20.05;34.48;95804.97;10440479;28;3154;-51
2022/12/05 23:07:08;;;;;;;;;;;;;;;20.05;34.74;95789.19;10446841;28;3034;-51
2022/12/05 23:12:08;;;;;;;;;;;;;;;20.07;34.49;95792.31;10447307;28;2971;-53
2022/12/05 23:17:09;;;;;;;;;;;;;;;20.07;34.33;95787.06;10446405;28;2955;-52
2022/12/05 23:22:09;;;;;;;;;;;;;;;20.03;33.72;95780.75;10444795;28;2982;-51
2022/12/05 23:27:09;;;;;;;;;;;;;;;20.05;34.28;95781.28;10449380;28;3212;-48
2022/12/05 23:32:10;;;;;;;;;;;;;;;20.04;34.00;95777.06;10442197;28;3022;-50
2022/12/05 23:37:10;;;;;;;;;;;;;;;20.02;34.67;95773.91;10449653;28;2985;-52
2022/12/05 23:42:10;;;;;;;;;;;;;;;20.02;34.79;95779.97;10445413;28;3078;-53
2022/12/05 23:47:10;;;;;;;;;;;;;;;20.02;35.01;95773.91;10422989;28;3033;-55
2022/12/05 23:52:11;;;;;;;;;;;;;;;20.01;34.24;95777.63;10431197;28;2975;-51
2022/12/05 23:57:12;;;;;;;;;;;;;;;20.01;34.45;95767.09;10446825;28;3038;-51
